Terminal Aerodrome Forecast
Issued by NWS St Louis, MO

Home | Current Version | Previous Version | Graphics & Text | Print | Product List | Glossary On
Versions: 1 2 3 4 5 6 7 8 9 10 11 12 13 14 15 16 17 18 19 20 21 22 23 24 25 26
000
FTUS43 KLSX 242300
TAFSTL
TAF
KSTL 242336Z 2500/2606 18006KT P6SM FEW050 BKN250
     FM250900 26005KT 6SM BR FEW030 SCT250
      TEMPO 2511/2513 4SM BR
     FM251500 31007KT P6SM SKC
     FM260000 VRB04KT P6SM SKC=

USA.gov is the U.S. government's official web portal to all federal, state and local government web resources and services.